createdAt,value
2018-05-12T00:02:34.698Z,20.07
2018-05-12T00:07:38.044Z,19.17
2018-05-12T00:12:41.218Z,20.93
2018-05-12T00:17:44.553Z,24.00
2018-05-12T00:22:48.336Z,25.93
2018-05-12T00:27:50.953Z,25.83
2018-05-12T00:32:53.518Z,20.93
2018-05-12T00:37:58.669Z,23.40
2018-05-12T00:43:02.921Z,26.87
2018-05-12T00:48:06.904Z,22.17
2018-05-12T00:53:10.317Z,26.47
2018-05-12T00:58:13.655Z,26.37
2018-05-12T01:03:16.216Z,24.37
2018-05-12T01:08:19.476Z,24.50
2018-05-12T01:13:22.050Z,25.80
2018-05-12T01:18:26.369Z,25.50
2018-05-12T01:23:28.956Z,24.20
2018-05-12T01:28:31.558Z,24.13
2018-05-12T01:33:34.492Z,19.90
2018-05-12T01:38:38.168Z,23.77
2018-05-12T01:43:40.720Z,27.23
2018-05-12T01:48:44.718Z,25.00
2018-05-12T01:53:47.292Z,26.43
2018-05-12T01:58:50.509Z,25.80
2018-05-12T02:03:53.764Z,29.00
2018-05-12T02:08:57.585Z,29.13
2018-05-12T02:14:01.386Z,26.03
2018-05-12T02:19:03.954Z,27.13
2018-05-12T02:24:06.523Z,28.90
2018-05-12T02:29:09.084Z,29.73
2018-05-12T02:34:12.338Z,29.33
2018-05-12T02:39:15.384Z,27.67
2018-05-12T02:44:17.954Z,30.77
2018-05-12T02:49:21.155Z,26.70
2018-05-12T02:54:24.514Z,24.60
2018-05-12T02:59:27.070Z,28.73
2018-05-12T03:04:30.528Z,26.20
2018-05-12T03:09:33.099Z,32.80
2018-05-12T03:14:37.030Z,31.43
2018-05-12T03:19:39.605Z,30.60
2018-05-12T03:24:43.941Z,31.03
2018-05-12T03:29:48.904Z,32.23
2018-05-12T03:34:51.476Z,30.47
2018-05-12T03:39:55.117Z,31.90
2018-05-12T03:44:58.470Z,31.30
2018-05-12T03:50:01.740Z,31.43
2018-05-12T03:55:04.320Z,32.63
2018-05-12T04:00:06.993Z,30.77
2018-05-12T04:11:10.733Z,31.37
2018-05-12T04:16:13.557Z,34.50
2018-05-12T04:21:16.113Z,34.20
2018-05-12T04:26:19.443Z,34.50
2018-05-12T04:31:22.011Z,30.67
2018-05-12T04:36:25.019Z,33.37
2018-05-12T04:41:28.357Z,34.80
2018-05-12T04:46:31.686Z,31.50
2018-05-12T04:51:34.263Z,29.87
2018-05-12T04:56:37.767Z,33.90
2018-05-12T05:01:41.450Z,34.37
2018-05-12T05:06:44.466Z,32.63
2018-05-12T05:11:47.048Z,34.50
2018-05-12T05:16:50.302Z,38.60
2018-05-12T05:21:52.897Z,39.13
2018-05-12T05:26:55.467Z,37.97
2018-05-12T05:31:58.032Z,43.43
2018-05-12T05:37:00.592Z,37.87
2018-05-12T05:42:03.965Z,42.63
2018-05-12T05:47:06.534Z,44.80
2018-05-12T05:52:11.803Z,49.67
2018-05-12T05:57:15.129Z,48.77
2018-05-12T06:02:17.690Z,54.30
2018-05-12T06:07:27.556Z,60.00
2018-05-12T06:12:30.131Z,51.13
2018-05-12T06:17:33.768Z,49.83
2018-05-12T06:22:36.332Z,45.57
2018-05-12T06:27:38.920Z,44.53
2018-05-12T06:32:41.928Z,43.27
2018-05-12T06:37:45.360Z,43.10
2018-05-12T06:42:48.371Z,46.10
2018-05-12T06:47:51.511Z,49.27
2018-05-12T06:52:54.701Z,39.73
2018-05-12T06:57:57.553Z,39.97
2018-05-12T07:03:00.881Z,40.40
2018-05-12T07:08:03.431Z,35.83
2018-05-12T07:13:05.986Z,36.37
2018-05-12T07:18:08.742Z,38.10
2018-05-12T07:23:11.304Z,36.57
2018-05-12T07:28:20.754Z,37.80
2018-05-12T07:33:23.544Z,43.93
2018-05-12T07:38:26.099Z,35.40
2018-05-12T07:43:28.668Z,36.70
2018-05-12T07:48:31.241Z,32.03
2018-05-12T07:53:33.822Z,35.13
2018-05-12T07:58:38.028Z,35.10
2018-05-12T08:03:41.392Z,36.30
2018-05-12T08:08:44.408Z,30.70
2018-05-12T08:13:48.145Z,30.70
2018-05-12T08:18:51.316Z,29.80
2018-05-12T08:23:54.654Z,30.80
2018-05-12T08:28:57.837Z,30.43
2018-05-12T08:34:01.853Z,29.93
2018-05-12T08:39:05.266Z,30.50
2018-05-12T08:44:08.644Z,36.07
2018-05-12T08:49:11.210Z,33.40
2018-05-12T08:54:15.269Z,41.83
2018-05-12T08:59:17.843Z,33.40
2018-05-12T09:04:21.479Z,37.40
2018-05-12T09:09:24.061Z,37.17
2018-05-12T09:14:27.701Z,33.60
2018-05-12T09:19:30.553Z,27.87
2018-05-12T09:24:35.888Z,29.47
2018-05-12T09:29:39.019Z,29.17
2018-05-12T09:34:41.580Z,25.13
2018-05-12T09:39:44.140Z,21.10
2018-05-12T09:44:46.979Z,21.03
2018-05-12T09:49:49.549Z,21.63
2018-05-12T09:54:52.135Z,17.90
2018-05-12T09:59:55.261Z,17.20
2018-05-12T10:04:57.848Z,21.30
2018-05-12T10:10:00.412Z,19.37
2018-05-12T10:15:03.241Z,19.03
2018-05-12T10:20:05.822Z,17.77
2018-05-12T10:25:10.913Z,13.50
2018-05-12T10:30:14.980Z,17.87
2018-05-12T10:35:17.560Z,9.57
2018-05-12T10:40:20.884Z,17.60
2018-05-12T10:45:23.916Z,14.90
2018-05-12T10:50:28.157Z,12.80
2018-05-12T10:55:30.741Z,12.67
2018-05-12T11:00:33.310Z,9.90
2018-05-12T11:05:37.217Z,15.37
2018-05-12T11:10:40.516Z,8.67
2018-05-12T11:15:43.088Z,7.93
2018-05-12T11:20:46.389Z,8.77
2018-05-12T11:25:48.938Z,10.67
2018-05-12T11:30:51.505Z,11.10
2018-05-12T11:35:54.059Z,12.10
2018-05-12T11:40:57.412Z,10.97
2018-05-12T11:45:59.960Z,8.67
2018-05-12T11:51:03.744Z,10.10
2018-05-12T11:56:06.879Z,6.67
2018-05-12T12:01:09.428Z,9.63
2018-05-12T12:06:11.983Z,5.43
2018-05-12T12:11:14.599Z,8.47
2018-05-12T12:16:17.941Z,7.10
2018-05-12T12:21:20.532Z,9.07
2018-05-12T12:26:25.552Z,7.77
2018-05-12T12:31:28.117Z,9.40
2018-05-12T12:36:32.218Z,7.37
2018-05-12T12:41:34.837Z,7.20
2018-05-12T12:46:52.822Z,5.90
2018-05-12T12:51:58.225Z,3.20
2018-05-12T12:57:01.635Z,2.53
2018-05-12T13:02:04.985Z,6.20
2018-05-12T13:07:08.276Z,5.60
2018-05-12T13:12:10.844Z,8.77
2018-05-12T13:17:13.414Z,8.07
2018-05-12T13:22:16.231Z,6.60
2018-05-12T13:27:18.816Z,5.70
2018-05-12T13:32:21.854Z,6.50
2018-05-12T13:37:24.413Z,9.70
2018-05-12T13:42:26.986Z,6.83
2018-05-12T13:47:29.553Z,5.40
2018-05-12T13:52:32.112Z,7.00
2018-05-12T13:57:34.998Z,7.47
2018-05-12T14:02:37.748Z,8.70
2018-05-12T14:07:41.091Z,8.47
2018-05-12T14:12:44.423Z,7.50
2018-05-12T14:17:48.095Z,3.23
2018-05-12T14:22:53.248Z,2.43
2018-05-12T14:27:55.808Z,2.67
2018-05-12T14:32:59.585Z,2.90
2018-05-12T14:38:02.368Z,2.20
2018-05-12T14:43:05.799Z,1.90
2018-05-12T14:48:08.685Z,1.80
2018-05-12T14:53:12.542Z,2.10
2018-05-12T14:58:16.912Z,1.90
2018-05-12T15:03:19.758Z,1.47
2018-05-12T15:08:23.040Z,3.23
2018-05-12T15:13:25.569Z,2.53
2018-05-12T15:18:28.318Z,2.30
2018-05-12T15:23:31.658Z,4.10
2018-05-12T15:28:34.232Z,6.40
2018-05-12T15:33:37.794Z,4.20
2018-05-12T15:38:40.359Z,2.50
2018-05-12T15:43:45.914Z,4.40
2018-05-12T15:48:48.392Z,32.37
2018-05-12T15:53:51.804Z,3.93
2018-05-12T15:58:55.516Z,5.40
2018-05-12T16:03:58.137Z,3.20
2018-05-12T16:09:00.700Z,4.23
2018-05-12T16:14:03.290Z,4.13
2018-05-12T16:19:05.860Z,3.30
2018-05-12T16:24:09.200Z,3.70
2018-05-12T16:29:11.801Z,5.37
2018-05-12T16:34:14.361Z,6.57
2018-05-12T16:39:24.290Z,6.83
2018-05-12T16:44:29.528Z,3.93
2018-05-12T16:49:32.035Z,4.00
2018-05-12T16:54:34.604Z,6.53
2018-05-12T16:59:37.169Z,4.97
2018-05-12T17:04:39.745Z,5.03
2018-05-12T17:09:42.324Z,3.83
2018-05-12T17:14:44.901Z,11.00
2018-05-12T17:19:48.083Z,16.10
2018-05-12T17:24:51.420Z,9.17
2018-05-12T17:29:54.091Z,6.10
2018-05-12T17:40:06.645Z,16.20
2018-05-12T17:45:10.356Z,9.60
2018-05-12T17:50:12.923Z,18.60
2018-05-12T17:55:15.877Z,12.90
2018-05-12T18:00:18.460Z,14.63
2018-05-12T18:05:21.067Z,23.13
2018-05-12T18:10:24.328Z,51.20
2018-05-12T18:15:26.895Z,33.83
2018-05-12T18:20:29.469Z,16.60
2018-05-12T18:25:32.414Z,22.37
2018-05-12T18:30:35.263Z,25.37
2018-05-12T18:35:37.997Z,7.00
2018-05-12T18:40:41.730Z,12.80
2018-05-12T18:45:44.309Z,40.27
2018-05-12T18:50:46.903Z,40.00
2018-05-12T18:55:50.043Z,23.70
2018-05-12T19:00:53.316Z,12.83
2018-05-12T19:05:58.980Z,9.90
2018-05-12T19:11:02.109Z,6.67
2018-05-12T19:16:04.696Z,19.30
2018-05-12T19:21:07.270Z,11.20
2018-05-12T19:26:09.850Z,26.60
2018-05-12T19:31:13.870Z,97.90
2018-05-12T19:36:24.004Z,90.83
2018-05-12T19:41:26.571Z,65.40
2018-05-12T19:46:29.147Z,18.57
2018-05-12T19:51:33.046Z,14.93
2018-05-12T19:56:38.714Z,17.87
2018-05-12T20:01:41.276Z,12.33
2018-05-12T20:06:44.419Z,19.87
2018-05-12T20:11:46.978Z,16.20
2018-05-12T20:16:49.549Z,10.57
2018-05-12T20:21:52.921Z,13.70
2018-05-12T20:26:55.490Z,17.10
2018-05-12T20:31:58.429Z,17.27
2018-05-12T20:37:01.708Z,25.23
2018-05-12T20:42:05.099Z,17.70
2018-05-12T20:47:11.090Z,36.50
2018-05-12T20:52:13.694Z,42.93
2018-05-12T20:57:17.911Z,55.00
2018-05-12T21:02:21.848Z,75.97
2018-05-12T21:07:25.631Z,61.20
2018-05-12T21:12:29.339Z,49.07
2018-05-12T21:17:33.122Z,49.10
2018-05-12T21:22:36.646Z,44.47
2018-05-12T21:27:39.576Z,55.17
2018-05-12T21:32:42.451Z,36.43
2018-05-12T21:37:45.750Z,25.97
2018-05-12T21:42:58.911Z,21.10
2018-05-12T21:48:01.724Z,30.53
2018-05-12T21:53:04.484Z,24.47
2018-05-12T21:58:07.948Z,20.77
2018-05-12T22:03:10.840Z,22.37
2018-05-12T22:08:13.639Z,15.10
2018-05-12T22:18:46.096Z,14.07
2018-05-12T22:24:03.796Z,27.70
2018-05-12T22:29:07.916Z,42.37
2018-05-12T22:34:11.682Z,29.20
2018-05-12T22:39:15.929Z,17.70
2018-05-12T22:44:20.732Z,15.10
2018-05-12T22:49:23.700Z,15.57
2018-05-12T22:54:29.254Z,18.73
2018-05-12T22:59:34.106Z,18.50
